sensor_id;sensor_type;location;lat;lon;timestamp;temperature;humidity
37446;DHT22;23307;51.136;14.942;2023-12-20T00:02:14;7.80;99.90
37446;DHT22;23307;51.136;14.942;2023-12-20T00:04:40;7.80;99.90
37446;DHT22;23307;51.136;14.942;2023-12-20T00:07:05;7.70;99.90
37446;DHT22;23307;51.136;14.942;2023-12-20T00:09:30;7.60;99.90
37446;DHT22;23307;51.136;14.942;2023-12-20T00:11:56;7.60;99.90
37446;DHT22;23307;51.136;14.942;2023-12-20T00:14:22;7.60;99.90
37446;DHT22;23307;51.136;14.942;2023-12-20T00:16:47;7.50;99.90
37446;DHT22;23307;51.136;14.942;2023-12-20T00:19:13;7.50;99.90
37446;DHT22;23307;51.136;14.942;2023-12-20T00:21:38;7.40;99.90
37446;DHT22;23307;51.136;14.942;2023-12-20T00:24:04;7.40;99.90
37446;DHT22;23307;51.136;14.942;2023-12-20T00:26:30;7.40;99.90
37446;DHT22;23307;51.136;14.942;2023-12-20T00:28:55;7.40;99.90
37446;DHT22;23307;51.136;14.942;2023-12-20T00:31:21;7.30;99.90
37446;DHT22;23307;51.136;14.942;2023-12-20T00:33:46;7.40;99.90
37446;DHT22;23307;51.136;14.942;2023-12-20T00:36:12;7.30;99.90
37446;DHT22;23307;51.136;14.942;2023-12-20T00:38:38;7.40;99.90
37446;DHT22;23307;51.136;14.942;2023-12-20T00:41:03;7.30;99.90
37446;DHT22;23307;51.136;14.942;2023-12-20T00:43:29;7.30;99.90
37446;DHT22;23307;51.136;14.942;2023-12-20T00:45:54;7.40;99.90
37446;DHT22;23307;51.136;14.942;2023-12-20T00:48:21;7.40;99.90
37446;DHT22;23307;51.136;14.942;2023-12-20T00:50:46;7.30;99.90
37446;DHT22;23307;51.136;14.942;2023-12-20T00:53:12;7.30;99.90
37446;DHT22;23307;51.136;14.942;2023-12-20T00:55:37;7.20;99.90
37446;DHT22;23307;51.136;14.942;2023-12-20T00:58:03;7.20;99.90
37446;DHT22;23307;51.136;14.942;2023-12-20T01:00:28;7.20;99.90
37446;DHT22;23307;51.136;14.942;2023-12-20T01:02:54;7.10;99.90
37446;DHT22;23307;51.136;14.942;2023-12-20T01:05:22;7.00;99.90
37446;DHT22;23307;51.136;14.942;2023-12-20T01:07:48;7.00;99.90
37446;DHT22;23307;51.136;14.942;2023-12-20T01:10:14;6.90;99.90
37446;DHT22;23307;51.136;14.942;2023-12-20T01:12:40;6.90;99.90
37446;DHT22;23307;51.136;14.942;2023-12-20T01:15:06;6.90;99.90
37446;DHT22;23307;51.136;14.942;2023-12-20T01:17:31;6.90;99.90
37446;DHT22;23307;51.136;14.942;2023-12-20T01:19:57;6.90;99.90
37446;DHT22;23307;51.136;14.942;2023-12-20T01:22:23;6.90;99.90
37446;DHT22;23307;51.136;14.942;2023-12-20T01:24:49;6.90;99.90
37446;DHT22;23307;51.136;14.942;2023-12-20T01:27:14;6.90;99.90
37446;DHT22;23307;51.136;14.942;2023-12-20T01:29:40;6.90;99.90
37446;DHT22;23307;51.136;14.942;2023-12-20T01:32:06;7.00;99.90
37446;DHT22;23307;51.136;14.942;2023-12-20T01:34:31;7.00;99.90
37446;DHT22;23307;51.136;14.942;2023-12-20T01:36:57;6.90;99.90
37446;DHT22;23307;51.136;14.942;2023-12-20T01:39:23;6.80;99.90
37446;DHT22;23307;51.136;14.942;2023-12-20T01:41:48;6.80;99.90
37446;DHT22;23307;51.136;14.942;2023-12-20T01:44:14;6.80;99.90
37446;DHT22;23307;51.136;14.942;2023-12-20T01:46:39;6.80;99.90
37446;DHT22;23307;51.136;14.942;2023-12-20T01:49:05;6.70;99.90
37446;DHT22;23307;51.136;14.942;2023-12-20T01:51:31;6.70;99.90
37446;DHT22;23307;51.136;14.942;2023-12-20T01:53:58;6.70;99.90
37446;DHT22;23307;51.136;14.942;2023-12-20T01:56:25;6.70;99.90
37446;DHT22;23307;51.136;14.942;2023-12-20T01:58:51;6.60;99.90
37446;DHT22;23307;51.136;14.942;2023-12-20T02:01:17;6.70;99.90
37446;DHT22;23307;51.136;14.942;2023-12-20T02:03:44;6.70;99.90
37446;DHT22;23307;51.136;14.942;2023-12-20T02:06:10;6.70;99.90
37446;DHT22;23307;51.136;14.942;2023-12-20T02:08:36;6.70;99.90
37446;DHT22;23307;51.136;14.942;2023-12-20T02:11:02;6.70;99.90
37446;DHT22;23307;51.136;14.942;2023-12-20T02:13:28;6.70;99.90
37446;DHT22;23307;51.136;14.942;2023-12-20T02:15:54;6.70;99.90
37446;DHT22;23307;51.136;14.942;2023-12-20T02:18:20;6.70;99.90
37446;DHT22;23307;51.136;14.942;2023-12-20T02:20:45;6.70;99.90
37446;DHT22;23307;51.136;14.942;2023-12-20T02:23:11;6.70;99.90
37446;DHT22;23307;51.136;14.942;2023-12-20T02:25:36;6.70;99.90
37446;DHT22;23307;51.136;14.942;2023-12-20T02:28:03;6.80;99.90
37446;DHT22;23307;51.136;14.942;2023-12-20T02:30:29;6.70;99.90
37446;DHT22;23307;51.136;14.942;2023-12-20T02:32:54;6.70;99.90
37446;DHT22;23307;51.136;14.942;2023-12-20T02:35:20;6.70;99.90
37446;DHT22;23307;51.136;14.942;2023-12-20T02:37:45;6.60;99.90
37446;DHT22;23307;51.136;14.942;2023-12-20T02:40:11;6.60;99.90
37446;DHT22;23307;51.136;14.942;2023-12-20T02:42:36;6.70;99.90
37446;DHT22;23307;51.136;14.942;2023-12-20T02:45:02;6.70;99.90
37446;DHT22;23307;51.136;14.942;2023-12-20T02:47:28;6.80;99.90
37446;DHT22;23307;51.136;14.942;2023-12-20T02:49:55;6.80;99.90
37446;DHT22;23307;51.136;14.942;2023-12-20T02:52:21;6.80;99.90
37446;DHT22;23307;51.136;14.942;2023-12-20T02:54:46;6.70;99.90
37446;DHT22;23307;51.136;14.942;2023-12-20T02:57:12;6.70;99.90
37446;DHT22;23307;51.136;14.942;2023-12-20T02:59:37;6.80;99.90
37446;DHT22;23307;51.136;14.942;2023-12-20T03:02:03;6.80;99.90
37446;DHT22;23307;51.136;14.942;2023-12-20T03:04:28;6.80;99.90
37446;DHT22;23307;51.136;14.942;2023-12-20T03:06:54;6.80;99.90
37446;DHT22;23307;51.136;14.942;2023-12-20T03:09:19;6.70;99.90
37446;DHT22;23307;51.136;14.942;2023-12-20T03:11:45;6.80;99.90
37446;DHT22;23307;51.136;14.942;2023-12-20T03:14:10;6.80;99.90
37446;DHT22;23307;51.136;14.942;2023-12-20T03:16:36;6.70;99.90
37446;DHT22;23307;51.136;14.942;2023-12-20T03:19:02;6.70;99.90
37446;DHT22;23307;51.136;14.942;2023-12-20T03:21:27;6.70;99.90
37446;DHT22;23307;51.136;14.942;2023-12-20T03:23:53;6.60;99.90
37446;DHT22;23307;51.136;14.942;2023-12-20T03:26:18;6.60;99.90
37446;DHT22;23307;51.136;14.942;2023-12-20T03:28:44;6.60;99.90
37446;DHT22;23307;51.136;14.942;2023-12-20T03:31:10;6.60;99.90
37446;DHT22;23307;51.136;14.942;2023-12-20T03:33:36;6.60;99.90
37446;DHT22;23307;51.136;14.942;2023-12-20T03:36:01;6.60;99.90
37446;DHT22;23307;51.136;14.942;2023-12-20T03:38:27;6.50;99.90
37446;DHT22;23307;51.136;14.942;2023-12-20T03:40:52;6.50;99.90
37446;DHT22;23307;51.136;14.942;2023-12-20T03:43:18;6.50;99.90
37446;DHT22;23307;51.136;14.942;2023-12-20T03:45:43;6.50;99.90
37446;DHT22;23307;51.136;14.942;2023-12-20T03:48:09;6.60;99.90
37446;DHT22;23307;51.136;14.942;2023-12-20T03:50:35;6.50;99.90
37446;DHT22;23307;51.136;14.942;2023-12-20T03:53:01;6.60;99.90
37446;DHT22;23307;51.136;14.942;2023-12-20T03:55:26;6.60;99.90
37446;DHT22;23307;51.136;14.942;2023-12-20T03:57:52;6.60;99.90
37446;DHT22;23307;51.136;14.942;2023-12-20T04:00:17;6.60;99.90
37446;DHT22;23307;51.136;14.942;2023-12-20T04:02:43;6.60;99.90
37446;DHT22;23307;51.136;14.942;2023-12-20T04:05:09;6.60;99.90
37446;DHT22;23307;51.136;14.942;2023-12-20T04:07:35;6.60;99.90
37446;DHT22;23307;51.136;14.942;2023-12-20T04:10:01;6.60;99.90
37446;DHT22;23307;51.136;14.942;2023-12-20T04:12:29;6.50;99.90
37446;DHT22;23307;51.136;14.942;2023-12-20T04:14:54;6.50;99.90
37446;DHT22;23307;51.136;14.942;2023-12-20T04:17:20;6.50;99.90
37446;DHT22;23307;51.136;14.942;2023-12-20T04:19:48;6.50;99.90
37446;DHT22;23307;51.136;14.942;2023-12-20T04:22:13;6.50;99.90
37446;DHT22;23307;51.136;14.942;2023-12-20T04:24:39;6.50;99.90
37446;DHT22;23307;51.136;14.942;2023-12-20T04:27:04;6.50;99.90
37446;DHT22;23307;51.136;14.942;2023-12-20T04:29:30;6.50;99.90
37446;DHT22;23307;51.136;14.942;2023-12-20T04:31:55;6.50;99.90
37446;DHT22;23307;51.136;14.942;2023-12-20T04:34:23;6.40;99.90
37446;DHT22;23307;51.136;14.942;2023-12-20T04:36:48;6.40;99.90
37446;DHT22;23307;51.136;14.942;2023-12-20T04:39:14;6.40;99.90
37446;DHT22;23307;51.136;14.942;2023-12-20T04:41:40;6.40;99.90
37446;DHT22;23307;51.136;14.942;2023-12-20T04:44:06;6.40;99.90
37446;DHT22;23307;51.136;14.942;2023-12-20T04:46:31;6.40;99.90
37446;DHT22;23307;51.136;14.942;2023-12-20T04:48:57;6.40;99.90
37446;DHT22;23307;51.136;14.942;2023-12-20T04:51:22;6.40;99.90
37446;DHT22;23307;51.136;14.942;2023-12-20T04:53:48;6.40;99.90
37446;DHT22;23307;51.136;14.942;2023-12-20T04:56:13;6.40;99.90
37446;DHT22;23307;51.136;14.942;2023-12-20T04:58:39;6.40;99.90
37446;DHT22;23307;51.136;14.942;2023-12-20T05:01:06;6.40;99.90
37446;DHT22;23307;51.136;14.942;2023-12-20T05:03:31;6.40;99.90
37446;DHT22;23307;51.136;14.942;2023-12-20T05:05:57;6.40;99.90
37446;DHT22;23307;51.136;14.942;2023-12-20T05:08:22;6.40;99.90
37446;DHT22;23307;51.136;14.942;2023-12-20T05:10:48;6.40;99.90
37446;DHT22;23307;51.136;14.942;2023-12-20T05:13:13;6.40;99.90
37446;DHT22;23307;51.136;14.942;2023-12-20T05:15:39;6.40;99.90
37446;DHT22;23307;51.136;14.942;2023-12-20T05:18:05;6.40;99.90
37446;DHT22;23307;51.136;14.942;2023-12-20T05:20:30;6.40;99.90
37446;DHT22;23307;51.136;14.942;2023-12-20T05:22:56;6.40;99.90
37446;DHT22;23307;51.136;14.942;2023-12-20T05:25:21;6.40;99.90
37446;DHT22;23307;51.136;14.942;2023-12-20T05:27:47;6.40;99.90
37446;DHT22;23307;51.136;14.942;2023-12-20T05:30:13;6.50;99.90
37446;DHT22;23307;51.136;14.942;2023-12-20T05:32:39;6.50;99.90
37446;DHT22;23307;51.136;14.942;2023-12-20T05:35:04;6.50;99.90
37446;DHT22;23307;51.136;14.942;2023-12-20T05:37:30;6.50;99.90
37446;DHT22;23307;51.136;14.942;2023-12-20T05:39:55;6.50;99.90
37446;DHT22;23307;51.136;14.942;2023-12-20T05:42:21;6.50;99.90
37446;DHT22;23307;51.136;14.942;2023-12-20T05:44:46;6.50;99.90
37446;DHT22;23307;51.136;14.942;2023-12-20T05:47:12;6.50;99.90
37446;DHT22;23307;51.136;14.942;2023-12-20T05:49:37;6.50;99.90
37446;DHT22;23307;51.136;14.942;2023-12-20T05:52:03;6.50;99.90
37446;DHT22;23307;51.136;14.942;2023-12-20T05:54:29;6.50;99.90
37446;DHT22;23307;51.136;14.942;2023-12-20T05:56:54;6.50;99.90
37446;DHT22;23307;51.136;14.942;2023-12-20T05:59:20;6.50;99.90
37446;DHT22;23307;51.136;14.942;2023-12-20T06:01:45;6.50;99.90
37446;DHT22;23307;51.136;14.942;2023-12-20T06:04:11;6.50;99.90
37446;DHT22;23307;51.136;14.942;2023-12-20T06:06:43;6.50;99.90
37446;DHT22;23307;51.136;14.942;2023-12-20T06:09:09;6.50;99.90
37446;DHT22;23307;51.136;14.942;2023-12-20T06:11:34;6.50;99.90
37446;DHT22;23307;51.136;14.942;2023-12-20T06:14:00;6.50;99.90
37446;DHT22;23307;51.136;14.942;2023-12-20T06:16:25;6.50;99.90
37446;DHT22;23307;51.136;14.942;2023-12-20T06:18:51;6.50;99.90
37446;DHT22;23307;51.136;14.942;2023-12-20T06:21:16;6.50;99.90
37446;DHT22;23307;51.136;14.942;2023-12-20T06:23:42;6.50;99.90
37446;DHT22;23307;51.136;14.942;2023-12-20T06:26:07;6.50;99.90
37446;DHT22;23307;51.136;14.942;2023-12-20T06:28:33;6.50;99.90
37446;DHT22;23307;51.136;14.942;2023-12-20T06:30:58;6.50;99.90
37446;DHT22;23307;51.136;14.942;2023-12-20T06:33:26;6.50;99.90
37446;DHT22;23307;51.136;14.942;2023-12-20T06:35:51;6.50;99.90
37446;DHT22;23307;51.136;14.942;2023-12-20T06:38:18;6.50;99.90
37446;DHT22;23307;51.136;14.942;2023-12-20T06:40:43;6.50;99.90
37446;DHT22;23307;51.136;14.942;2023-12-20T06:43:09;6.50;99.90
37446;DHT22;23307;51.136;14.942;2023-12-20T06:45:35;6.40;99.90
37446;DHT22;23307;51.136;14.942;2023-12-20T06:48:00;6.40;99.90
37446;DHT22;23307;51.136;14.942;2023-12-20T06:50:26;6.40;99.90
37446;DHT22;23307;51.136;14.942;2023-12-20T06:52:51;6.40;99.90
37446;DHT22;23307;51.136;14.942;2023-12-20T06:55:17;6.30;99.90
37446;DHT22;23307;51.136;14.942;2023-12-20T06:57:43;6.30;99.90
37446;DHT22;23307;51.136;14.942;2023-12-20T07:00:12;6.30;99.90
37446;DHT22;23307;51.136;14.942;2023-12-20T07:02:38;6.30;99.90
37446;DHT22;23307;51.136;14.942;2023-12-20T07:05:04;6.30;99.90
37446;DHT22;23307;51.136;14.942;2023-12-20T07:07:30;6.30;99.90
37446;DHT22;23307;51.136;14.942;2023-12-20T07:09:55;6.30;99.90
37446;DHT22;23307;51.136;14.942;2023-12-20T07:12:21;6.20;99.90
37446;DHT22;23307;51.136;14.942;2023-12-20T07:14:46;6.20;99.90
37446;DHT22;23307;51.136;14.942;2023-12-20T07:17:12;6.20;99.90
37446;DHT22;23307;51.136;14.942;2023-12-20T07:19:40;6.10;99.90
37446;DHT22;23307;51.136;14.942;2023-12-20T07:22:06;6.10;99.90
37446;DHT22;23307;51.136;14.942;2023-12-20T07:24:32;6.00;99.90
37446;DHT22;23307;51.136;14.942;2023-12-20T07:26:59;5.90;99.90
37446;DHT22;23307;51.136;14.942;2023-12-20T07:29:24;5.90;99.90
37446;DHT22;23307;51.136;14.942;2023-12-20T07:31:50;5.90;99.90
37446;DHT22;23307;51.136;14.942;2023-12-20T07:34:17;5.90;99.90
37446;DHT22;23307;51.136;14.942;2023-12-20T07:36:42;6.00;99.90
37446;DHT22;23307;51.136;14.942;2023-12-20T07:39:08;6.00;99.90
37446;DHT22;23307;51.136;14.942;2023-12-20T07:41:33;6.20;99.90
37446;DHT22;23307;51.136;14.942;2023-12-20T07:43:59;6.20;99.90
37446;DHT22;23307;51.136;14.942;2023-12-20T07:46:24;6.30;99.90
37446;DHT22;23307;51.136;14.942;2023-12-20T07:48:50;6.40;99.90
37446;DHT22;23307;51.136;14.942;2023-12-20T07:51:16;6.50;99.90
37446;DHT22;23307;51.136;14.942;2023-12-20T07:53:41;6.50;99.90
37446;DHT22;23307;51.136;14.942;2023-12-20T07:56:17;6.60;99.90
37446;DHT22;23307;51.136;14.942;2023-12-20T07:58:43;6.60;99.90
37446;DHT22;23307;51.136;14.942;2023-12-20T08:01:10;6.60;99.90
37446;DHT22;23307;51.136;14.942;2023-12-20T08:03:35;6.60;99.90
37446;DHT22;23307;51.136;14.942;2023-12-20T08:06:01;6.60;99.90
37446;DHT22;23307;51.136;14.942;2023-12-20T08:08:27;6.70;99.90
37446;DHT22;23307;51.136;14.942;2023-12-20T08:10:53;6.60;99.90
37446;DHT22;23307;51.136;14.942;2023-12-20T08:13:19;6.60;99.90
37446;DHT22;23307;51.136;14.942;2023-12-20T08:15:44;6.60;99.90
37446;DHT22;23307;51.136;14.942;2023-12-20T08:18:10;6.60;99.90
37446;DHT22;23307;51.136;14.942;2023-12-20T08:20:35;6.60;99.90
37446;DHT22;23307;51.136;14.942;2023-12-20T08:23:01;6.60;99.90
37446;DHT22;23307;51.136;14.942;2023-12-20T08:25:26;6.60;99.90
37446;DHT22;23307;51.136;14.942;2023-12-20T08:27:52;6.60;99.90
37446;DHT22;23307;51.136;14.942;2023-12-20T08:30:18;6.60;99.90
37446;DHT22;23307;51.136;14.942;2023-12-20T08:32:47;6.60;99.90
37446;DHT22;23307;51.136;14.942;2023-12-20T08:35:13;6.60;99.90
37446;DHT22;23307;51.136;14.942;2023-12-20T08:37:38;6.60;99.90
37446;DHT22;23307;51.136;14.942;2023-12-20T08:40:04;6.60;99.90
37446;DHT22;23307;51.136;14.942;2023-12-20T08:42:30;6.60;99.90
37446;DHT22;23307;51.136;14.942;2023-12-20T08:44:57;6.60;99.90
37446;DHT22;23307;51.136;14.942;2023-12-20T08:47:24;6.70;99.90
37446;DHT22;23307;51.136;14.942;2023-12-20T08:49:49;6.70;99.90
37446;DHT22;23307;51.136;14.942;2023-12-20T08:52:15;6.70;99.90
37446;DHT22;23307;51.136;14.942;2023-12-20T08:54:40;6.60;99.90
37446;DHT22;23307;51.136;14.942;2023-12-20T08:57:06;6.60;99.90
37446;DHT22;23307;51.136;14.942;2023-12-20T08:59:32;6.60;99.90
37446;DHT22;23307;51.136;14.942;2023-12-20T09:01:58;6.60;99.90
37446;DHT22;23307;51.136;14.942;2023-12-20T09:04:23;6.60;99.90
37446;DHT22;23307;51.136;14.942;2023-12-20T09:06:49;6.70;99.90
37446;DHT22;23307;51.136;14.942;2023-12-20T09:09:14;6.80;99.90
37446;DHT22;23307;51.136;14.942;2023-12-20T09:11:40;6.90;99.90
37446;DHT22;23307;51.136;14.942;2023-12-20T09:14:06;7.00;99.90
37446;DHT22;23307;51.136;14.942;2023-12-20T09:16:31;7.10;99.90
37446;DHT22;23307;51.136;14.942;2023-12-20T09:18:57;7.20;99.90
37446;DHT22;23307;51.136;14.942;2023-12-20T09:21:23;7.30;99.90
37446;DHT22;23307;51.136;14.942;2023-12-20T09:23:49;7.40;99.90
37446;DHT22;23307;51.136;14.942;2023-12-20T09:26:14;7.40;99.90
37446;DHT22;23307;51.136;14.942;2023-12-20T09:28:40;7.40;99.90
37446;DHT22;23307;51.136;14.942;2023-12-20T09:31:06;7.40;99.90
37446;DHT22;23307;51.136;14.942;2023-12-20T09:33:32;7.50;99.90
37446;DHT22;23307;51.136;14.942;2023-12-20T09:35:57;7.50;99.90
37446;DHT22;23307;51.136;14.942;2023-12-20T09:38:23;7.50;99.90
37446;DHT22;23307;51.136;14.942;2023-12-20T09:40:49;7.50;99.90
37446;DHT22;23307;51.136;14.942;2023-12-20T09:43:15;7.40;99.90
37446;DHT22;23307;51.136;14.942;2023-12-20T09:45:46;7.50;99.90
37446;DHT22;23307;51.136;14.942;2023-12-20T09:48:12;7.50;99.90
37446;DHT22;23307;51.136;14.942;2023-12-20T09:50:40;7.40;99.90
37446;DHT22;23307;51.136;14.942;2023-12-20T09:53:08;7.40;99.90
37446;DHT22;23307;51.136;14.942;2023-12-20T09:55:35;7.40;99.90
37446;DHT22;23307;51.136;14.942;2023-12-20T09:58:01;7.40;99.90
37446;DHT22;23307;51.136;14.942;2023-12-20T10:00:27;7.40;99.90
37446;DHT22;23307;51.136;14.942;2023-12-20T10:05:18;7.40;99.90
37446;DHT22;23307;51.136;14.942;2023-12-20T10:07:47;7.40;99.90
37446;DHT22;23307;51.136;14.942;2023-12-20T10:10:13;7.40;99.90
37446;DHT22;23307;51.136;14.942;2023-12-20T10:12:39;7.40;99.90
37446;DHT22;23307;51.136;14.942;2023-12-20T10:15:05;7.40;99.90
37446;DHT22;23307;51.136;14.942;2023-12-20T10:17:31;7.50;99.90
37446;DHT22;23307;51.136;14.942;2023-12-20T10:19:57;7.60;99.90
37446;DHT22;23307;51.136;14.942;2023-12-20T10:22:23;7.70;99.90
37446;DHT22;23307;51.136;14.942;2023-12-20T10:24:49;7.80;99.90
37446;DHT22;23307;51.136;14.942;2023-12-20T10:27:14;7.80;99.90
37446;DHT22;23307;51.136;14.942;2023-12-20T10:29:40;7.90;99.90
37446;DHT22;23307;51.136;14.942;2023-12-20T10:32:22;8.00;99.90
37446;DHT22;23307;51.136;14.942;2023-12-20T10:34:49;8.10;99.90
37446;DHT22;23307;51.136;14.942;2023-12-20T10:37:14;8.10;99.90
37446;DHT22;23307;51.136;14.942;2023-12-20T10:39:42;8.10;99.90
37446;DHT22;23307;51.136;14.942;2023-12-20T10:42:09;8.20;99.90
37446;DHT22;23307;51.136;14.942;2023-12-20T10:44:35;8.20;99.90
37446;DHT22;23307;51.136;14.942;2023-12-20T10:47:02;8.20;99.90
37446;DHT22;23307;51.136;14.942;2023-12-20T10:49:29;8.00;99.90
37446;DHT22;23307;51.136;14.942;2023-12-20T10:51:57;7.90;99.90
37446;DHT22;23307;51.136;14.942;2023-12-20T10:54:25;7.90;99.90
37446;DHT22;23307;51.136;14.942;2023-12-20T10:56:52;7.80;99.90
37446;DHT22;23307;51.136;14.942;2023-12-20T10:59:19;7.80;99.90
37446;DHT22;23307;51.136;14.942;2023-12-20T11:01:47;7.80;99.90
37446;DHT22;23307;51.136;14.942;2023-12-20T11:04:24;7.80;99.90
37446;DHT22;23307;51.136;14.942;2023-12-20T11:07:08;7.80;99.90
37446;DHT22;23307;51.136;14.942;2023-12-20T11:09:40;7.80;99.90
37446;DHT22;23307;51.136;14.942;2023-12-20T11:12:24;7.90;99.90
37446;DHT22;23307;51.136;14.942;2023-12-20T11:14:53;7.90;99.90
37446;DHT22;23307;51.136;14.942;2023-12-20T11:17:22;7.80;99.90
37446;DHT22;23307;51.136;14.942;2023-12-20T11:22:21;7.70;99.90
37446;DHT22;23307;51.136;14.942;2023-12-20T11:24:48;7.80;99.90
37446;DHT22;23307;51.136;14.942;2023-12-20T11:27:14;7.80;99.90
37446;DHT22;23307;51.136;14.942;2023-12-20T11:29:40;7.80;99.90
37446;DHT22;23307;51.136;14.942;2023-12-20T11:34:58;7.80;99.90
37446;DHT22;23307;51.136;14.942;2023-12-20T11:37:31;7.80;99.90
37446;DHT22;23307;51.136;14.942;2023-12-20T11:40:05;7.80;99.90
37446;DHT22;23307;51.136;14.942;2023-12-20T11:42:33;7.80;99.90
37446;DHT22;23307;51.136;14.942;2023-12-20T11:45:01;7.80;99.90
37446;DHT22;23307;51.136;14.942;2023-12-20T11:47:29;7.70;99.90
37446;DHT22;23307;51.136;14.942;2023-12-20T11:49:55;7.80;99.90
37446;DHT22;23307;51.136;14.942;2023-12-20T11:52:21;7.80;99.90
37446;DHT22;23307;51.136;14.942;2023-12-20T11:54:47;7.80;99.90
37446;DHT22;23307;51.136;14.942;2023-12-20T11:57:13;7.90;99.90
37446;DHT22;23307;51.136;14.942;2023-12-20T11:59:39;7.90;99.90
37446;DHT22;23307;51.136;14.942;2023-12-20T12:02:04;7.90;99.90
37446;DHT22;23307;51.136;14.942;2023-12-20T12:04:30;7.90;99.90
37446;DHT22;23307;51.136;14.942;2023-12-20T12:06:55;7.90;99.90
37446;DHT22;23307;51.136;14.942;2023-12-20T12:09:21;7.90;99.90
37446;DHT22;23307;51.136;14.942;2023-12-20T12:11:46;7.80;99.90
37446;DHT22;23307;51.136;14.942;2023-12-20T12:14:13;7.80;99.90
37446;DHT22;23307;51.136;14.942;2023-12-20T12:16:39;7.80;99.90
37446;DHT22;23307;51.136;14.942;2023-12-20T12:19:06;7.80;99.90
37446;DHT22;23307;51.136;14.942;2023-12-20T12:21:32;7.80;99.90
37446;DHT22;23307;51.136;14.942;2023-12-20T12:24:10;7.80;99.90
37446;DHT22;23307;51.136;14.942;2023-12-20T12:26:35;7.80;99.90
37446;DHT22;23307;51.136;14.942;2023-12-20T12:29:01;7.80;99.90
37446;DHT22;23307;51.136;14.942;2023-12-20T12:31:26;7.90;99.90
37446;DHT22;23307;51.136;14.942;2023-12-20T12:33:52;7.90;99.90
37446;DHT22;23307;51.136;14.942;2023-12-20T12:36:17;7.90;99.90
37446;DHT22;23307;51.136;14.942;2023-12-20T12:38:43;8.00;99.90
37446;DHT22;23307;51.136;14.942;2023-12-20T12:41:09;8.00;99.90
37446;DHT22;23307;51.136;14.942;2023-12-20T12:43:37;8.10;99.90
37446;DHT22;23307;51.136;14.942;2023-12-20T12:46:03;8.20;99.90
37446;DHT22;23307;51.136;14.942;2023-12-20T12:48:28;8.40;99.90
37446;DHT22;23307;51.136;14.942;2023-12-20T12:50:54;8.50;99.90
37446;DHT22;23307;51.136;14.942;2023-12-20T12:53:24;8.60;99.90
37446;DHT22;23307;51.136;14.942;2023-12-20T12:55:49;8.70;99.90
37446;DHT22;23307;51.136;14.942;2023-12-20T12:58:15;8.60;99.90
37446;DHT22;23307;51.136;14.942;2023-12-20T13:00:40;8.50;99.90
37446;DHT22;23307;51.136;14.942;2023-12-20T13:03:07;8.40;99.90
37446;DHT22;23307;51.136;14.942;2023-12-20T13:05:33;8.30;99.90
37446;DHT22;23307;51.136;14.942;2023-12-20T13:07:59;8.20;99.90
37446;DHT22;23307;51.136;14.942;2023-12-20T13:10:24;8.20;99.90
37446;DHT22;23307;51.136;14.942;2023-12-20T13:12:50;8.20;99.90
37446;DHT22;23307;51.136;14.942;2023-12-20T13:15:15;8.20;99.90
37446;DHT22;23307;51.136;14.942;2023-12-20T13:17:41;8.10;99.90
37446;DHT22;23307;51.136;14.942;2023-12-20T13:20:07;8.10;99.90
37446;DHT22;23307;51.136;14.942;2023-12-20T13:22:33;8.20;99.90
37446;DHT22;23307;51.136;14.942;2023-12-20T13:24:58;8.10;99.90
37446;DHT22;23307;51.136;14.942;2023-12-20T13:27:24;8.10;99.90
37446;DHT22;23307;51.136;14.942;2023-12-20T13:29:49;8.10;99.90
37446;DHT22;23307;51.136;14.942;2023-12-20T13:32:15;8.10;99.90
37446;DHT22;23307;51.136;14.942;2023-12-20T13:34:40;8.10;99.90
37446;DHT22;23307;51.136;14.942;2023-12-20T13:37:06;8.10;99.90
37446;DHT22;23307;51.136;14.942;2023-12-20T13:39:31;8.10;99.90
37446;DHT22;23307;51.136;14.942;2023-12-20T13:41:57;8.00;99.90
37446;DHT22;23307;51.136;14.942;2023-12-20T13:44:23;8.00;99.90
37446;DHT22;23307;51.136;14.942;2023-12-20T13:46:48;8.00;99.90
37446;DHT22;23307;51.136;14.942;2023-12-20T13:49:15;8.00;99.90
37446;DHT22;23307;51.136;14.942;2023-12-20T13:51:41;8.00;99.90
37446;DHT22;23307;51.136;14.942;2023-12-20T13:54:06;8.00;99.90
37446;DHT22;23307;51.136;14.942;2023-12-20T13:56:32;8.00;99.90
37446;DHT22;23307;51.136;14.942;2023-12-20T13:58:58;8.00;99.90
37446;DHT22;23307;51.136;14.942;2023-12-20T14:01:25;8.00;99.90
37446;DHT22;23307;51.136;14.942;2023-12-20T14:03:51;8.00;99.90
37446;DHT22;23307;51.136;14.942;2023-12-20T14:06:17;8.00;99.90
37446;DHT22;23307;51.136;14.942;2023-12-20T14:08:43;8.00;99.90
37446;DHT22;23307;51.136;14.942;2023-12-20T14:11:09;8.00;99.90
37446;DHT22;23307;51.136;14.942;2023-12-20T14:13:35;8.00;99.90
37446;DHT22;23307;51.136;14.942;2023-12-20T14:16:00;8.00;99.90
37446;DHT22;23307;51.136;14.942;2023-12-20T14:18:27;7.90;99.90
37446;DHT22;23307;51.136;14.942;2023-12-20T14:20:53;8.00;99.90
37446;DHT22;23307;51.136;14.942;2023-12-20T14:23:19;7.90;99.90
37446;DHT22;23307;51.136;14.942;2023-12-20T14:25:44;7.90;99.90
37446;DHT22;23307;51.136;14.942;2023-12-20T14:28:10;8.00;99.90
37446;DHT22;23307;51.136;14.942;2023-12-20T14:30:37;7.90;99.90
37446;DHT22;23307;51.136;14.942;2023-12-20T14:33:03;7.90;99.90
37446;DHT22;23307;51.136;14.942;2023-12-20T14:35:29;7.90;99.90
37446;DHT22;23307;51.136;14.942;2023-12-20T14:37:55;7.90;99.90
37446;DHT22;23307;51.136;14.942;2023-12-20T14:40:20;7.90;99.90
37446;DHT22;23307;51.136;14.942;2023-12-20T14:42:46;7.90;99.90
37446;DHT22;23307;51.136;14.942;2023-12-20T14:45:11;7.90;99.90
37446;DHT22;23307;51.136;14.942;2023-12-20T14:47:38;7.90;99.90
37446;DHT22;23307;51.136;14.942;2023-12-20T14:50:05;7.90;99.90
37446;DHT22;23307;51.136;14.942;2023-12-20T14:52:32;7.90;99.90
37446;DHT22;23307;51.136;14.942;2023-12-20T14:54:59;7.90;99.90
37446;DHT22;23307;51.136;14.942;2023-12-20T14:57:25;7.90;99.90
37446;DHT22;23307;51.136;14.942;2023-12-20T14:59:50;7.80;99.90
37446;DHT22;23307;51.136;14.942;2023-12-20T15:02:16;7.80;99.90
37446;DHT22;23307;51.136;14.942;2023-12-20T15:04:41;7.80;99.90
37446;DHT22;23307;51.136;14.942;2023-12-20T15:07:07;7.80;99.90
37446;DHT22;23307;51.136;14.942;2023-12-20T15:09:32;7.80;99.90
37446;DHT22;23307;51.136;14.942;2023-12-20T15:11:58;7.80;99.90
37446;DHT22;23307;51.136;14.942;2023-12-20T15:14:23;7.80;99.90
37446;DHT22;23307;51.136;14.942;2023-12-20T15:16:49;7.80;99.90
37446;DHT22;23307;51.136;14.942;2023-12-20T15:19:15;7.80;99.90
37446;DHT22;23307;51.136;14.942;2023-12-20T15:21:41;7.80;99.90
37446;DHT22;23307;51.136;14.942;2023-12-20T15:24:08;7.80;99.90
37446;DHT22;23307;51.136;14.942;2023-12-20T15:26:46;7.80;99.90
37446;DHT22;23307;51.136;14.942;2023-12-20T15:29:12;7.80;99.90
37446;DHT22;23307;51.136;14.942;2023-12-20T15:31:47;7.80;99.90